Time;durP1;ratioP1;P1;durP2;ratioP2;P2;SDS_P1;SDS_P2;PMS_P1;PMS_P2;Temp;Humidity;BMP_temperature;BMP_pressure;BME280_temperature;BME280_humidity;BME280_pressure;Samples;Min_cycle;Max_cycle;Signal;HPM_P1;HPM_P2
2023/11/12 00:01:47;;;;;;;4.93;3.67;;;8.70;99.90;;;;;;5062842;28;20195;-75
2023/11/12 00:04:12;;;;;;;4.50;3.37;;;8.70;99.90;;;;;;5059966;28;20522;-75
2023/11/12 00:06:41;;;;;;;5.33;3.67;;;8.70;99.90;;;;;;5059877;28;20475;-74
2023/11/12 00:09:08;;;;;;;7.50;3.50;;;8.70;99.90;;;;;;5060300;28;20240;-75
2023/11/12 00:11:38;;;;;;;5.13;3.47;;;8.60;99.90;;;;;;5060069;28;20898;-74
2023/11/12 00:14:04;;;;;;;5.23;3.47;;;8.70;99.90;;;;;;5058886;28;20547;-75
2023/11/12 00:16:30;;;;;;;5.27;3.20;;;8.70;99.90;;;;;;5059267;28;20465;-75
2023/11/12 00:18:56;;;;;;;7.23;3.67;;;8.70;99.90;;;;;;5057236;28;20440;-74
2023/11/12 00:21:23;;;;;;;4.60;3.27;;;8.70;99.90;;;;;;5052776;28;20537;-74
2023/11/12 00:23:49;;;;;;;4.30;3.53;;;8.70;99.90;;;;;;5060613;28;20514;-74
2023/11/12 00:26:16;;;;;;;4.73;3.90;;;8.70;99.90;;;;;;5055916;28;20628;-74
2023/11/12 00:28:41;;;;;;;3.50;2.80;;;8.70;99.90;;;;;;5058640;28;20425;-74
2023/11/12 00:31:07;;;;;;;6.00;3.10;;;8.80;99.90;;;;;;5057777;28;20410;-74
2023/11/12 00:33:33;;;;;;;4.40;3.47;;;8.80;99.90;;;;;;5055311;28;20237;-74
2023/11/12 00:35:58;;;;;;;4.60;3.17;;;8.80;99.90;;;;;;5062283;28;20205;-74
2023/11/12 00:38:24;;;;;;;4.03;3.00;;;8.80;99.90;;;;;;5058629;28;20219;-74
2023/11/12 00:40:50;;;;;;;4.43;2.53;;;8.80;99.90;;;;;;5059650;28;20179;-74
2023/11/12 00:43:16;;;;;;;7.73;3.03;;;8.80;99.90;;;;;;5064377;28;20214;-75
2023/11/12 00:45:41;;;;;;;3.93;2.90;;;8.80;99.90;;;;;;5062553;28;20409;-75
2023/11/12 00:48:08;;;;;;;3.83;3.17;;;8.80;99.90;;;;;;5064738;28;20202;-75
2023/11/12 00:50:34;;;;;;;4.87;2.97;;;8.90;99.90;;;;;;5059904;28;20179;-75
2023/11/12 00:53:00;;;;;;;4.47;2.80;;;8.90;99.90;;;;;;5066197;28;20469;-75
2023/11/12 00:55:25;;;;;;;4.17;2.90;;;8.90;99.90;;;;;;5057127;28;20989;-75
2023/11/12 00:57:51;;;;;;;5.30;3.00;;;8.90;99.90;;;;;;5059270;28;20673;-75
2023/11/12 01:00:17;;;;;;;5.50;3.00;;;8.90;99.90;;;;;;5059721;28;20591;-75
2023/11/12 01:02:43;;;;;;;6.30;2.90;;;8.90;99.90;;;;;;5060832;28;20962;-75
2023/11/12 01:05:08;;;;;;;3.47;2.70;;;8.90;99.90;;;;;;5058835;28;20507;-75
2023/11/12 01:07:35;;;;;;;4.77;2.73;;;8.90;99.90;;;;;;5059426;28;20178;-74
2023/11/12 01:10:02;;;;;;;6.53;2.90;;;8.90;99.90;;;;;;5063464;28;20163;-74
2023/11/12 01:12:27;;;;;;;5.13;2.60;;;8.90;99.90;;;;;;5058358;28;20733;-75
2023/11/12 01:14:53;;;;;;;6.03;2.80;;;8.90;99.90;;;;;;5058432;28;20614;-75
2023/11/12 01:17:19;;;;;;;3.23;2.80;;;9.00;99.90;;;;;;5060669;28;20210;-74
2023/11/12 01:19:45;;;;;;;4.77;2.67;;;9.00;99.90;;;;;;5058370;28;20467;-74
2023/11/12 01:22:11;;;;;;;4.13;2.30;;;9.00;99.90;;;;;;5057434;28;20433;-74
2023/11/12 01:24:37;;;;;;;3.67;2.33;;;9.00;99.90;;;;;;5060709;28;20172;-74
2023/11/12 01:27:03;;;;;;;3.80;2.63;;;9.00;99.90;;;;;;5061886;28;20187;-73
2023/11/12 01:29:30;;;;;;;3.50;2.50;;;9.00;99.90;;;;;;5060762;28;20839;-74
2023/11/12 01:31:55;;;;;;;4.30;2.73;;;9.00;99.90;;;;;;5058624;28;20511;-74
2023/11/12 01:34:22;;;;;;;4.90;2.50;;;9.00;99.90;;;;;;5056831;28;20230;-74
2023/11/12 01:36:48;;;;;;;4.77;3.20;;;9.00;99.90;;;;;;5054474;28;20712;-74
2023/11/12 01:39:14;;;;;;;3.83;2.60;;;9.10;99.90;;;;;;5061621;28;20445;-74
2023/11/12 01:41:40;;;;;;;6.77;3.03;;;9.10;99.90;;;;;;5060983;28;20210;-74
2023/11/12 01:44:05;;;;;;;6.47;3.00;;;9.10;99.90;;;;;;5057511;28;20200;-74
2023/11/12 01:46:33;;;;;;;4.70;2.73;;;9.10;99.90;;;;;;5060797;28;20592;-73
2023/11/12 01:49:00;;;;;;;4.50;2.70;;;9.00;99.90;;;;;;5063549;28;20183;-74
2023/11/12 01:51:28;;;;;;;3.70;2.67;;;9.10;99.90;;;;;;5059515;28;20874;-75
2023/11/12 01:53:55;;;;;;;5.20;2.93;;;9.10;99.90;;;;;;5059644;28;20461;-74
2023/11/12 01:56:21;;;;;;;4.37;2.60;;;9.10;99.90;;;;;;5063065;28;20420;-74
2023/11/12 01:58:51;;;;;;;4.07;2.93;;;9.20;99.90;;;;;;5059544;28;20526;-74
2023/11/12 02:01:17;;;;;;;2.63;2.30;;;9.20;99.90;;;;;;5061355;28;20420;-74
2023/11/12 02:03:43;;;;;;;7.30;2.90;;;9.20;99.90;;;;;;5064854;28;20437;-74
2023/11/12 02:06:11;;;;;;;4.00;3.00;;;9.20;99.90;;;;;;5060154;28;20496;-75
2023/11/12 02:08:40;;;;;;;3.70;2.97;;;9.20;99.90;;;;;;5064662;28;20183;-74
2023/11/12 02:11:09;;;;;;;4.97;2.97;;;9.20;99.90;;;;;;5064601;28;20849;-74
2023/11/12 02:13:41;;;;;;;4.17;2.80;;;9.20;99.90;;;;;;5063550;28;20430;-74
2023/11/12 02:16:07;;;;;;;6.17;3.43;;;9.20;99.90;;;;;;5063549;28;20423;-74
2023/11/12 02:18:33;;;;;;;4.50;2.90;;;9.20;99.90;;;;;;5063269;28;20476;-74
2023/11/12 02:20:58;;;;;;;5.40;3.20;;;9.20;99.90;;;;;;5063106;28;20437;-75
2023/11/12 02:23:24;;;;;;;4.70;3.20;;;9.20;99.90;;;;;;5063434;28;20457;-75
2023/11/12 02:25:51;;;;;;;4.60;2.70;;;9.10;99.90;;;;;;5062635;28;20218;-75
2023/11/12 02:28:18;;;;;;;3.67;2.73;;;9.10;99.90;;;;;;5061106;28;20238;-74
2023/11/12 02:30:44;;;;;;;7.07;3.53;;;9.10;99.90;;;;;;5060767;28;20421;-74
2023/11/12 02:33:10;;;;;;;3.70;2.70;;;9.00;99.90;;;;;;5061759;28;20514;-74
2023/11/12 02:35:42;;;;;;;3.77;2.80;;;9.00;99.90;;;;;;5059027;28;20184;-74
2023/11/12 02:38:10;;;;;;;4.07;2.90;;;9.00;99.90;;;;;;5061285;28;20204;-74
2023/11/12 02:40:36;;;;;;;5.57;2.83;;;9.00;99.90;;;;;;5063365;28;21067;-75
2023/11/12 02:43:03;;;;;;;4.17;2.70;;;9.00;99.90;;;;;;5063811;28;20445;-74
2023/11/12 02:45:29;;;;;;;4.97;3.23;;;8.90;99.90;;;;;;5048856;28;20421;-74
2023/11/12 02:47:55;;;;;;;4.70;2.93;;;8.90;99.90;;;;;;5061745;28;20444;-74
2023/11/12 02:50:25;;;;;;;5.87;3.10;;;8.90;99.90;;;;;;5063833;28;20437;-74
2023/11/12 02:52:52;;;;;;;5.17;3.20;;;8.80;99.90;;;;;;5062281;28;20456;-74
2023/11/12 02:55:18;;;;;;;3.63;2.67;;;8.80;99.90;;;;;;5060573;28;20429;-74
2023/11/12 02:57:47;;;;;;;4.03;3.13;;;8.80;99.90;;;;;;5063636;28;20461;-75
2023/11/12 03:00:14;;;;;;;6.03;3.10;;;8.80;99.90;;;;;;5060452;28;20202;-75
2023/11/12 03:02:39;;;;;;;4.17;3.03;;;8.70;99.90;;;;;;5061692;28;20498;-75
2023/11/12 03:05:08;;;;;;;3.60;2.90;;;8.70;99.90;;;;;;5061887;28;20518;-75
2023/11/12 03:07:34;;;;;;;5.90;3.00;;;8.70;99.90;;;;;;5059492;28;20321;-75
2023/11/12 03:10:01;;;;;;;6.07;3.60;;;8.70;99.90;;;;;;5056870;28;20934;-75
2023/11/12 03:12:27;;;;;;;4.13;3.50;;;8.70;99.90;;;;;;5060773;28;21677;-75
2023/11/12 03:14:52;;;;;;;7.13;3.73;;;8.60;99.90;;;;;;5060539;28;20448;-75
2023/11/12 03:17:18;;;;;;;3.63;2.73;;;8.60;99.90;;;;;;5057421;28;20907;-75
2023/11/12 03:19:44;;;;;;;5.03;3.17;;;8.60;99.90;;;;;;5059152;28;20517;-75
2023/11/12 03:22:10;;;;;;;6.43;3.00;;;8.60;99.90;;;;;;5052118;28;20178;-75
2023/11/12 03:24:36;;;;;;;6.20;3.40;;;8.60;99.90;;;;;;5058244;28;20933;-75
2023/11/12 03:27:02;;;;;;;4.40;2.73;;;8.60;99.90;;;;;;5059334;28;20188;-74
2023/11/12 03:29:27;;;;;;;3.97;3.10;;;8.60;99.90;;;;;;5060726;28;20205;-74
2023/11/12 03:31:53;;;;;;;5.30;3.20;;;8.50;99.90;;;;;;5058171;28;20186;-75
2023/11/12 03:34:19;;;;;;;4.27;3.33;;;8.50;99.90;;;;;;5056566;28;20210;-75
2023/11/12 03:36:45;;;;;;;4.57;3.20;;;8.50;99.90;;;;;;5059297;28;20461;-75
2023/11/12 03:39:11;;;;;;;5.53;3.10;;;8.50;99.90;;;;;;5062500;28;20478;-75
2023/11/12 03:41:37;;;;;;;5.60;2.90;;;8.50;99.90;;;;;;5056065;28;20720;-75
2023/11/12 03:44:03;;;;;;;4.53;2.90;;;8.50;99.90;;;;;;5062792;28;20817;-75
2023/11/12 03:46:29;;;;;;;3.87;3.13;;;8.50;99.90;;;;;;5054296;28;20415;-75
2023/11/12 03:48:54;;;;;;;6.23;3.20;;;8.50;99.90;;;;;;5057220;28;20424;-75
2023/11/12 03:51:20;;;;;;;5.20;3.50;;;8.50;99.90;;;;;;5060312;28;20207;-75
2023/11/12 03:53:45;;;;;;;4.70;3.43;;;8.50;99.90;;;;;;5057929;28;20678;-75
2023/11/12 03:56:11;;;;;;;6.10;3.80;;;8.50;99.90;;;;;;5055674;28;20889;-75
2023/11/12 03:58:38;;;;;;;5.03;3.20;;;8.50;99.90;;;;;;5058444;28;20241;-74
2023/11/12 04:01:04;;;;;;;4.67;3.10;;;8.50;99.90;;;;;;5059390;28;20413;-74
2023/11/12 04:03:30;;;;;;;3.60;3.07;;;8.50;99.90;;;;;;5059155;28;20436;-74
2023/11/12 04:05:56;;;;;;;4.20;3.17;;;8.50;99.90;;;;;;5058481;28;20180;-75
2023/11/12 04:08:21;;;;;;;5.20;2.77;;;8.50;99.90;;;;;;5057072;28;20806;-75
2023/11/12 04:10:47;;;;;;;6.40;3.03;;;8.50;99.90;;;;;;5057165;28;20474;-75
2023/11/12 04:13:13;;;;;;;4.97;3.60;;;8.50;99.90;;;;;;5063994;28;20211;-75
2023/11/12 04:15:38;;;;;;;4.60;3.13;;;8.50;99.90;;;;;;5061551;28;20191;-74
2023/11/12 04:18:04;;;;;;;5.00;2.90;;;8.40;99.90;;;;;;5058851;28;20673;-75
2023/11/12 04:20:32;;;;;;;4.80;3.37;;;8.40;99.90;;;;;;5055722;28;20187;-75
2023/11/12 04:22:58;;;;;;;4.43;2.97;;;8.40;99.90;;;;;;5056247;28;20445;-74
2023/11/12 04:25:24;;;;;;;3.73;3.07;;;8.40;99.90;;;;;;5056428;28;20954;-74
2023/11/12 04:27:49;;;;;;;5.17;3.40;;;8.40;99.90;;;;;;5058099;28;20499;-74
2023/11/12 04:30:16;;;;;;;5.10;3.80;;;8.40;99.90;;;;;;5057828;28;20211;-73
2023/11/12 04:32:44;;;;;;;3.60;2.80;;;8.40;99.90;;;;;;5056219;28;20246;-73
2023/11/12 04:35:11;;;;;;;4.50;3.40;;;8.40;99.90;;;;;;5057576;28;20502;-73
2023/11/12 04:37:39;;;;;;;3.80;3.20;;;8.40;99.90;;;;;;5054621;28;20498;-73
2023/11/12 04:40:09;;;;;;;5.70;3.63;;;8.40;99.90;;;;;;5053521;28;20954;-74
2023/11/12 04:42:35;;;;;;;4.40;3.40;;;8.40;99.90;;;;;;5057237;28;20453;-74
2023/11/12 04:45:02;;;;;;;4.27;3.23;;;8.40;99.90;;;;;;5058519;28;20781;-74
2023/11/12 04:47:28;;;;;;;4.80;3.70;;;8.30;99.90;;;;;;5056828;28;20421;-74
2023/11/12 04:49:53;;;;;;;7.43;3.97;;;8.30;99.90;;;;;;5064246;28;20440;-74
2023/11/12 04:52:20;;;;;;;4.40;3.33;;;8.30;99.90;;;;;;5056132;28;20214;-74
2023/11/12 04:54:47;;;;;;;3.93;3.00;;;8.20;99.90;;;;;;5056241;28;20222;-74
2023/11/12 04:57:13;;;;;;;4.07;3.27;;;8.20;99.90;;;;;;5058724;28;20492;-74
2023/11/12 04:59:40;;;;;;;4.77;3.07;;;8.20;99.90;;;;;;5058819;28;20422;-74
2023/11/12 05:02:06;;;;;;;3.87;3.13;;;8.20;99.90;;;;;;5058074;28;20186;-74
2023/11/12 05:04:32;;;;;;;4.70;3.10;;;8.20;99.90;;;;;;5059139;28;20433;-74
2023/11/12 05:06:58;;;;;;;7.33;3.47;;;8.20;99.90;;;;;;5066672;28;20296;-74
2023/11/12 05:09:23;;;;;;;5.70;3.17;;;8.20;99.90;;;;;;5062961;28;20428;-74
2023/11/12 05:11:49;;;;;;;6.90;3.27;;;8.10;99.90;;;;;;5062118;28;20194;-75
2023/11/12 05:14:14;;;;;;;5.27;3.80;;;8.10;99.90;;;;;;5063033;28;20203;-75
2023/11/12 05:16:43;;;;;;;8.73;3.70;;;8.10;99.90;;;;;;5062834;28;20199;-75
2023/11/12 05:19:09;;;;;;;4.23;3.20;;;8.10;99.90;;;;;;5062480;28;20190;-75
2023/11/12 05:21:35;;;;;;;3.83;3.10;;;8.10;99.90;;;;;;5055747;28;20420;-75
2023/11/12 05:24:00;;;;;;;3.53;2.80;;;8.00;99.90;;;;;;5059596;28;20809;-75
2023/11/12 05:26:26;;;;;;;4.93;3.07;;;8.00;99.90;;;;;;5061830;28;20187;-75
2023/11/12 05:28:51;;;;;;;5.87;3.70;;;8.00;99.90;;;;;;5062193;28;20282;-75
2023/11/12 05:31:17;;;;;;;4.23;3.30;;;8.00;99.90;;;;;;5060256;28;20629;-75
2023/11/12 05:33:43;;;;;;;5.10;3.07;;;8.00;99.90;;;;;;5059177;28;20305;-75
2023/11/12 05:36:08;;;;;;;3.83;3.03;;;8.00;99.90;;;;;;5062764;28;20258;-75
2023/11/12 05:38:34;;;;;;;3.83;2.90;;;7.90;99.90;;;;;;5063862;28;20307;-75
2023/11/12 05:41:00;;;;;;;4.00;2.87;;;7.90;99.90;;;;;;5062371;28;20187;-75
2023/11/12 05:43:26;;;;;;;4.60;2.80;;;7.90;99.90;;;;;;5057977;28;20207;-76
2023/11/12 05:45:52;;;;;;;9.40;2.77;;;7.90;99.90;;;;;;5057776;28;20926;-74
2023/11/12 05:48:20;;;;;;;4.17;3.10;;;7.90;99.90;;;;;;5056671;28;20452;-75
2023/11/12 05:50:45;;;;;;;4.20;2.80;;;7.90;99.90;;;;;;5061914;28;20183;-74
2023/11/12 05:53:11;;;;;;;4.23;2.50;;;7.90;99.90;;;;;;5059925;28;21100;-75
2023/11/12 05:55:37;;;;;;;3.37;2.70;;;7.90;99.90;;;;;;5057372;28;20195;-75
2023/11/12 05:58:03;;;;;;;3.30;2.60;;;7.90;99.90;;;;;;5064226;28;20384;-75
2023/11/12 06:00:29;;;;;;;5.23;2.63;;;7.90;99.90;;;;;;5061387;28;20417;-75
2023/11/12 06:02:55;;;;;;;2.90;2.37;;;7.90;99.90;;;;;;5056072;28;20510;-75
2023/11/12 06:05:21;;;;;;;3.40;2.60;;;7.90;99.90;;;;;;5055424;28;20183;-75
2023/11/12 06:07:46;;;;;;;4.30;2.60;;;7.90;99.90;;;;;;5055755;28;20930;-75
2023/11/12 06:10:13;;;;;;;3.20;2.90;;;8.00;99.90;;;;;;5061169;28;20186;-74
2023/11/12 06:12:38;;;;;;;4.00;2.63;;;7.90;99.90;;;;;;5061734;28;20198;-74
2023/11/12 06:15:05;;;;;;;7.60;2.73;;;7.90;99.90;;;;;;5057369;28;20430;-74
2023/11/12 06:17:31;;;;;;;3.87;2.83;;;7.80;99.90;;;;;;5057204;28;20207;-75
2023/11/12 06:19:57;;;;;;;3.80;2.80;;;7.80;99.90;;;;;;5055315;28;20427;-74
2023/11/12 06:22:22;;;;;;;4.37;3.00;;;7.80;99.90;;;;;;5058905;28;20198;-74
2023/11/12 06:24:48;;;;;;;3.90;3.37;;;7.70;99.90;;;;;;5060650;28;20184;-75
2023/11/12 06:27:13;;;;;;;11.80;4.10;;;7.70;99.90;;;;;;5058727;28;20680;-75
2023/11/12 06:29:39;;;;;;;9.30;4.50;;;7.80;99.90;;;;;;5060925;28;20183;-75
2023/11/12 06:32:06;;;;;;;5.40;4.40;;;7.90;99.90;;;;;;5053877;28;20648;-74
2023/11/12 06:34:33;;;;;;;7.20;4.70;;;7.70;99.90;;;;;;5061843;28;20183;-74
2023/11/12 06:36:58;;;;;;;7.30;4.33;;;7.60;99.90;;;;;;5059884;28;20503;-74
2023/11/12 06:39:24;;;;;;;5.50;3.83;;;7.50;99.90;;;;;;5063225;28;20910;-74
2023/11/12 06:41:50;;;;;;;6.10;3.80;;;7.50;99.90;;;;;;5060055;28;20175;-74
2023/11/12 06:44:15;;;;;;;4.53;3.47;;;7.40;99.90;;;;;;5059241;28;20527;-75
2023/11/12 06:46:47;;;;;;;4.53;4.10;;;7.50;99.90;;;;;;5061087;28;20270;-74
2023/11/12 06:49:16;;;;;;;7.40;3.77;;;7.50;99.90;;;;;;5060267;28;20175;-74
2023/11/12 06:51:42;;;;;;;8.60;4.03;;;7.40;99.90;;;;;;5062896;28;20417;-74
2023/11/12 06:54:08;;;;;;;7.07;4.57;;;7.40;99.90;;;;;;5060786;28;20499;-75
2023/11/12 06:56:34;;;;;;;6.17;4.20;;;7.30;99.90;;;;;;5056455;28;20203;-75
2023/11/12 06:59:03;;;;;;;7.30;4.20;;;7.30;99.90;;;;;;5058429;28;20555;-75
2023/11/12 07:01:29;;;;;;;5.40;4.50;;;7.30;99.90;;;;;;5058587;28;20175;-75
2023/11/12 07:03:55;;;;;;;5.57;4.43;;;7.30;99.90;;;;;;5058759;28;20959;-75
2023/11/12 07:06:20;;;;;;;5.13;4.10;;;7.30;99.90;;;;;;5056976;28;20541;-75
2023/11/12 07:08:46;;;;;;;4.53;3.83;;;7.30;99.90;;;;;;5059260;28;20704;-75
2023/11/12 07:11:11;;;;;;;5.90;3.93;;;7.30;99.90;;;;;;5058889;28;21091;-75
2023/11/12 07:13:37;;;;;;;6.60;3.77;;;7.30;99.90;;;;;;5063614;28;20699;-75
2023/11/12 07:16:04;;;;;;;6.00;3.83;;;7.30;99.90;;;;;;5057785;28;20233;-75
2023/11/12 07:18:30;;;;;;;6.70;4.03;;;7.30;99.90;;;;;;5059600;28;20199;-75
2023/11/12 07:20:55;;;;;;;4.63;3.70;;;7.20;99.90;;;;;;5057491;28;20907;-75
2023/11/12 07:23:21;;;;;;;6.50;4.43;;;7.30;99.90;;;;;;5060164;28;20251;-75
2023/11/12 07:25:46;;;;;;;6.20;3.90;;;7.40;99.90;;;;;;5059690;28;20164;-75
2023/11/12 07:28:12;;;;;;;4.93;4.13;;;7.40;99.90;;;;;;5060601;28;20611;-74
2023/11/12 07:30:38;;;;;;;4.50;3.33;;;7.50;99.90;;;;;;5059003;28;20215;-74
2023/11/12 07:33:05;;;;;;;5.27;3.90;;;7.60;99.90;;;;;;5051423;28;20234;-75
2023/11/12 07:35:32;;;;;;;6.10;4.40;;;7.70;99.90;;;;;;5057573;28;20271;-74
2023/11/12 07:37:58;;;;;;;6.27;4.80;;;7.70;99.90;;;;;;5061324;28;20533;-75
2023/11/12 07:40:26;;;;;;;6.43;4.60;;;7.80;99.90;;;;;;5066142;28;20446;-75
2023/11/12 07:42:52;;;;;;;5.00;3.93;;;7.90;99.90;;;;;;5058517;28;20212;-75
2023/11/12 07:45:19;;;;;;;7.83;4.80;;;7.90;99.90;;;;;;5057232;28;20568;-75
2023/11/12 07:47:45;;;;;;;5.00;4.13;;;8.00;99.90;;;;;;5064719;28;21262;-75
2023/11/12 07:50:11;;;;;;;7.00;5.20;;;8.00;99.90;;;;;;5059439;28;20413;-75
2023/11/12 07:52:37;;;;;;;6.40;5.53;;;8.10;99.90;;;;;;5055676;28;20521;-75
2023/11/12 07:55:05;;;;;;;7.63;4.10;;;8.10;99.90;;;;;;5054913;28;20949;-74
2023/11/12 07:57:32;;;;;;;6.40;3.93;;;8.20;99.90;;;;;;5056991;28;20305;-74
2023/11/12 07:59:58;;;;;;;6.73;3.77;;;8.20;99.90;;;;;;5055177;28;20433;-74
2023/11/12 08:02:23;;;;;;;5.87;5.03;;;8.30;99.90;;;;;;5058203;28;20550;-74
2023/11/12 08:04:49;;;;;;;10.17;4.00;;;8.30;99.90;;;;;;5056347;28;20425;-74
2023/11/12 08:07:14;;;;;;;6.03;4.70;;;8.40;99.90;;;;;;5060577;28;20244;-74
2023/11/12 08:09:46;;;;;;;6.60;4.80;;;8.40;99.90;;;;;;5055761;28;20202;-74
2023/11/12 08:12:13;;;;;;;5.60;4.60;;;8.50;99.90;;;;;;5053117;28;20187;-75
2023/11/12 08:14:39;;;;;;;5.87;4.53;;;8.60;99.90;;;;;;5058221;28;20418;-75
2023/11/12 08:17:05;;;;;;;4.80;4.20;;;8.60;99.90;;;;;;5058571;28;20480;-74
2023/11/12 08:19:35;;;;;;;5.20;4.70;;;8.70;99.90;;;;;;5055133;28;20761;-76
2023/11/12 08:22:02;;;;;;;7.00;4.67;;;8.70;99.90;;;;;;5052091;28;20202;-75
2023/11/12 08:24:27;;;;;;;5.93;4.40;;;8.80;99.90;;;;;;5058039;28;20946;-75
2023/11/12 08:26:53;;;;;;;9.03;4.57;;;8.90;99.90;;;;;;5055535;28;20432;-75
2023/11/12 08:29:19;;;;;;;5.20;3.93;;;8.90;99.90;;;;;;5056884;28;20175;-75
2023/11/12 08:31:44;;;;;;;11.13;4.40;;;9.00;99.90;;;;;;5057857;28;20271;-76
2023/11/12 08:34:10;;;;;;;6.57;4.43;;;9.00;99.90;;;;;;5056170;28;20199;-76
2023/11/12 08:36:35;;;;;;;5.27;3.77;;;9.10;99.90;;;;;;5054331;28;20609;-75
2023/11/12 08:39:04;;;;;;;7.07;4.60;;;9.10;99.90;;;;;;5057962;28;20190;-75
2023/11/12 08:41:30;;;;;;;8.10;4.30;;;9.20;99.90;;;;;;5053901;28;20259;-76
2023/11/12 08:43:56;;;;;;;6.37;4.23;;;9.20;99.90;;;;;;5058735;28;20966;-75
2023/11/12 08:46:23;;;;;;;8.93;4.23;;;9.30;99.90;;;;;;5055434;28;20649;-76
2023/11/12 08:48:48;;;;;;;5.87;3.77;;;9.30;99.90;;;;;;5049759;28;20431;-76
2023/11/12 08:51:14;;;;;;;6.53;4.27;;;9.30;99.90;;;;;;5056629;28;20432;-76
2023/11/12 08:53:40;;;;;;;8.47;6.73;;;9.40;99.90;;;;;;5056718;28;20680;-76
2023/11/12 08:56:07;;;;;;;7.53;6.60;;;9.40;99.90;;;;;;5051321;28;20187;-74
2023/11/12 08:58:33;;;;;;;6.00;4.33;;;9.40;99.90;;;;;;5057717;28;20683;-75
2023/11/12 09:00:59;;;;;;;6.60;4.53;;;9.40;99.90;;;;;;5049285;28;20506;-74
2023/11/12 09:03:26;;;;;;;8.27;6.20;;;9.50;99.90;;;;;;5055421;28;20195;-74
2023/11/12 09:05:51;;;;;;;7.23;6.37;;;9.50;99.90;;;;;;5059280;28;20417;-75
2023/11/12 09:08:17;;;;;;;10.17;7.47;;;9.50;99.90;;;;;;5056491;28;20430;-75
2023/11/12 09:10:43;;;;;;;9.27;7.00;;;9.60;99.90;;;;;;5059207;28;20183;-73
2023/11/12 09:13:09;;;;;;;9.47;7.20;;;9.60;99.90;;;;;;5060518;28;20225;-74
2023/11/12 09:15:36;;;;;;;8.93;5.33;;;9.70;99.90;;;;;;5057771;28;20232;-74
2023/11/12 09:18:02;;;;;;;8.10;5.60;;;9.80;99.90;;;;;;5058863;28;20803;-74
2023/11/12 09:20:27;;;;;;;7.20;5.20;;;9.80;99.90;;;;;;5058822;28;20448;-74
2023/11/12 09:22:53;;;;;;;10.53;6.37;;;10.00;99.90;;;;;;5061147;28;20672;-74
2023/11/12 09:25:19;;;;;;;6.67;4.87;;;10.10;99.90;;;;;;5057696;28;20179;-74
2023/11/12 09:27:45;;;;;;;6.37;5.17;;;10.30;99.90;;;;;;5057941;28;20238;-74
2023/11/12 09:30:11;;;;;;;5.97;4.30;;;10.40;99.90;;;;;;5054723;28;20192;-74
2023/11/12 09:32:37;;;;;;;11.60;7.60;;;10.60;99.90;;;;;;5055044;28;20606;-74
2023/11/12 09:35:04;;;;;;;8.10;6.50;;;10.70;99.90;;;;;;5055607;28;20422;-74
2023/11/12 09:37:30;;;;;;;9.83;5.57;;;10.80;99.90;;;;;;5058652;28;20472;-74
2023/11/12 09:39:56;;;;;;;7.17;4.83;;;10.80;99.90;;;;;;5056050;28;20526;-74
2023/11/12 09:42:25;;;;;;;6.00;4.97;;;10.80;99.90;;;;;;5057272;28;20228;-74
2023/11/12 09:44:53;;;;;;;5.43;4.60;;;10.80;99.90;;;;;;5059061;28;20171;-75
2023/11/12 09:47:35;;;;;;;9.00;5.47;;;10.80;99.90;;;;;;5059433;28;21009;-75
2023/11/12 09:50:04;;;;;;;7.77;5.37;;;10.80;99.90;;;;;;5061274;28;20447;-75
2023/11/12 09:52:30;;;;;;;7.00;4.87;;;10.80;99.90;;;;;;5065679;28;20548;-75
2023/11/12 09:54:58;;;;;;;5.73;4.80;;;10.80;99.90;;;;;;5058437;28;20432;-75
2023/11/12 09:57:23;;;;;;;7.03;5.10;;;10.80;99.90;;;;;;5059483;28;20481;-75
2023/11/12 09:59:51;;;;;;;5.17;4.67;;;10.90;99.90;;;;;;5057288;28;20536;-75
2023/11/12 10:02:18;;;;;;;7.73;4.97;;;11.00;99.90;;;;;;5063377;28;20175;-75
2023/11/12 10:04:54;;;;;;;5.83;4.57;;;11.00;99.90;;;;;;5062831;28;20413;-75
2023/11/12 10:07:19;;;;;;;8.70;5.70;;;11.00;99.90;;;;;;5059879;28;20436;-75
2023/11/12 10:09:45;;;;;;;6.30;5.13;;;11.10;99.90;;;;;;5062118;28;20888;-75
2023/11/12 10:12:10;;;;;;;6.83;5.63;;;11.10;99.90;;;;;;5060782;28;20547;-75
2023/11/12 10:14:36;;;;;;;8.73;5.33;;;11.10;99.90;;;;;;5058562;28;20266;-75
2023/11/12 10:17:07;;;;;;;5.10;4.47;;;11.10;99.90;;;;;;5062679;28;20543;-75
2023/11/12 10:19:35;;;;;;;7.00;4.83;;;11.10;99.90;;;;;;5057123;28;20183;-74
2023/11/12 10:22:03;;;;;;;7.63;5.30;;;11.10;99.90;;;;;;5058513;28;20803;-75
2023/11/12 10:24:29;;;;;;;6.47;5.17;;;11.10;99.90;;;;;;5057713;28;20437;-75
2023/11/12 10:27:04;;;;;;;6.73;4.70;;;11.10;99.90;;;;;;5063420;28;20505;-75
2023/11/12 10:29:31;;;;;;;7.47;5.20;;;11.10;99.90;;;;;;5057195;28;20421;-75
2023/11/12 10:31:59;;;;;;;13.00;6.70;;;11.10;99.90;;;;;;5061908;28;20429;-75
2023/11/12 10:34:26;;;;;;;7.87;5.77;;;11.10;99.90;;;;;;5058907;28;20441;-74
2023/11/12 10:37:13;;;;;;;9.23;4.77;;;11.10;99.90;;;;;;5058713;28;20457;-75
2023/11/12 10:39:43;;;;;;;6.60;4.60;;;11.10;99.90;;;;;;5060195;28;20520;-74
2023/11/12 10:42:24;;;;;;;5.57;4.60;;;11.10;99.90;;;;;;5061686;28;20918;-74
2023/11/12 10:44:56;;;;;;;6.13;4.30;;;11.20;99.90;;;;;;5063337;28;20878;-74
2023/11/12 10:47:26;;;;;;;3.97;3.47;;;11.10;99.90;;;;;;5062635;28;20428;-74
2023/11/12 10:49:53;;;;;;;5.23;3.97;;;10.80;99.90;;;;;;5069727;28;20796;-74
2023/11/12 10:52:19;;;;;;;4.37;3.37;;;10.70;99.90;;;;;;5073383;28;20482;-73
2023/11/12 10:54:47;;;;;;;9.80;4.17;;;10.80;99.90;;;;;;5066358;28;20437;-74
2023/11/12 10:57:14;;;;;;;6.37;3.50;;;10.80;99.90;;;;;;5071600;28;20548;-74
2023/11/12 10:59:40;;;;;;;7.47;3.67;;;10.90;99.90;;;;;;5069630;28;20409;-74
2023/11/12 11:02:16;;;;;;;5.17;4.03;;;10.80;99.90;;;;;;5071281;28;20422;-73
2023/11/12 11:04:45;;;;;;;5.20;4.20;;;10.80;99.90;;;;;;5064506;28;20429;-74
2023/11/12 11:07:11;;;;;;;6.80;3.90;;;10.80;99.90;;;;;;5065276;28;20441;-73
2023/11/12 11:09:37;;;;;;;5.07;4.30;;;10.70;99.90;;;;;;5061330;28;20477;-75
2023/11/12 11:12:03;;;;;;;5.00;3.50;;;10.70;99.90;;;;;;5066521;28;20902;-75
2023/11/12 11:14:29;;;;;;;6.67;4.00;;;10.60;99.90;;;;;;5065245;28;20199;-75
2023/11/12 11:16:55;;;;;;;5.03;3.70;;;10.70;99.90;;;;;;5063369;28;20788;-74
2023/11/12 11:19:43;;;;;;;5.93;3.83;;;10.80;99.90;;;;;;5062396;28;20180;-74
2023/11/12 11:22:29;;;;;;;4.90;3.27;;;10.80;99.90;;;;;;5063960;28;20452;-74
2023/11/12 11:24:59;;;;;;;5.37;4.00;;;10.80;99.90;;;;;;5064516;28;20475;-74
2023/11/12 11:27:26;;;;;;;4.37;3.47;;;10.90;99.90;;;;;;5061319;28;20650;-74
2023/11/12 11:30:06;;;;;;;6.60;4.20;;;10.80;99.90;;;;;;5057594;28;20515;-74
2023/11/12 11:32:32;;;;;;;5.87;3.67;;;10.80;99.90;;;;;;5060478;28;20448;-74
2023/11/12 11:34:59;;;;;;;7.00;3.60;;;10.80;99.90;;;;;;5056690;28;20499;-74
2023/11/12 11:38:03;;;;;;;5.57;4.40;;;10.90;99.90;;;;;;5059396;28;20862;-74
2023/11/12 11:40:29;;;;;;;9.30;6.23;;;11.00;99.90;;;;;;5057295;28;20421;-75
2023/11/12 11:43:23;;;;;;;6.40;4.37;;;10.80;99.90;;;;;;5058310;28;20961;-75
2023/11/12 11:46:10;;;;;;;6.40;4.13;;;11.00;99.90;;;;;;5057048;28;20896;-75
2023/11/12 11:48:56;;;;;;;5.80;3.13;;;11.10;99.90;;;;;;5056966;28;20520;-75
2023/11/12 11:51:28;;;;;;;4.43;2.83;;;11.00;99.90;;;;;;5058909;28;20532;-75
2023/11/12 11:53:55;;;;;;;4.90;3.27;;;10.80;99.90;;;;;;5060106;28;20456;-75
2023/11/12 11:56:26;;;;;;;3.00;2.27;;;10.90;99.90;;;;;;5056679;28;21094;-75
2023/11/12 11:58:52;;;;;;;3.33;2.13;;;10.80;99.90;;;;;;5059909;28;20453;-75
2023/11/12 12:01:19;;;;;;;4.57;2.90;;;10.90;99.90;;;;;;5058675;28;20518;-75
2023/11/12 12:03:45;;;;;;;5.07;2.70;;;11.10;99.90;;;;;;5059290;28;20462;-75
2023/11/12 12:06:17;;;;;;;4.17;2.33;;;11.10;99.90;;;;;;5055494;28;20441;-75
2023/11/12 12:08:50;;;;;;;4.20;2.77;;;11.20;99.90;;;;;;5059123;28;20452;-75
2023/11/12 12:11:17;;;;;;;7.60;2.63;;;11.20;99.90;;;;;;5050035;28;20432;-75
2023/11/12 12:14:06;;;;;;;3.50;2.20;;;11.20;99.90;;;;;;5056686;28;20465;-75
2023/11/12 12:16:33;;;;;;;7.13;2.83;;;11.30;99.90;;;;;;5059247;28;20445;-75
2023/11/12 12:19:01;;;;;;;3.90;2.30;;;11.20;99.90;;;;;;5057077;28;20433;-75
2023/11/12 12:21:26;;;;;;;5.40;2.30;;;11.10;99.90;;;;;;5071886;28;20414;-75
2023/11/12 12:23:53;;;;;;;4.13;2.23;;;11.20;99.90;;;;;;5053916;28;20444;-75
2023/11/12 12:26:24;;;;;;;4.20;2.30;;;11.20;99.90;;;;;;5057574;28;20405;-75
2023/11/12 12:28:51;;;;;;;4.07;2.30;;;11.30;99.90;;;;;;5054072;28;21284;-74
2023/11/12 12:31:17;;;;;;;6.03;2.23;;;11.40;99.90;;;;;;5055607;28;20817;-73
2023/11/12 12:33:58;;;;;;;3.47;2.40;;;11.40;99.90;;;;;;5056682;28;20457;-74
2023/11/12 12:36:23;;;;;;;4.67;2.40;;;11.50;99.90;;;;;;5054261;28;20498;-73
2023/11/12 12:38:59;;;;;;;3.73;2.27;;;11.50;99.90;;;;;;5055808;28;20824;-73
2023/11/12 12:41:28;;;;;;;4.47;1.90;;;11.50;99.90;;;;;;5051801;28;20233;-73
2023/11/12 12:43:56;;;;;;;4.10;2.30;;;11.60;99.90;;;;;;5055123;28;20465;-72
2023/11/12 12:46:24;;;;;;;3.97;2.33;;;11.60;99.90;;;;;;5052935;28;20518;-71
2023/11/12 12:48:56;;;;;;;4.47;2.40;;;11.70;99.90;;;;;;5060371;28;20850;-71
2023/11/12 12:51:22;;;;;;;5.20;2.60;;;11.60;99.90;;;;;;5058018;28;20417;-72
2023/11/12 12:53:52;;;;;;;3.93;2.50;;;11.60;99.90;;;;;;5058362;28;20469;-72